sensor_id;sensor_type;location;lat;lon;timestamp;temperature;humidity
360;DHT22;168;48.872;9.226;2023-12-07T00:00:45;5.20;94.20
360;DHT22;168;48.872;9.226;2023-12-07T00:03:12;5.20;94.50
360;DHT22;168;48.872;9.226;2023-12-07T00:05:41;5.20;94.30
360;DHT22;168;48.872;9.226;2023-12-07T00:08:09;5.20;93.90
360;DHT22;168;48.872;9.226;2023-12-07T00:10:39;5.30;93.50
360;DHT22;168;48.872;9.226;2023-12-07T00:13:06;5.30;93.20
360;DHT22;168;48.872;9.226;2023-12-07T00:15:33;5.30;93.40
360;DHT22;168;48.872;9.226;2023-12-07T00:18:01;5.30;94.10
360;DHT22;168;48.872;9.226;2023-12-07T00:20:29;5.30;94.20
360;DHT22;168;48.872;9.226;2023-12-07T00:22:56;5.40;94.10
360;DHT22;168;48.872;9.226;2023-12-07T00:25:23;5.40;93.80
360;DHT22;168;48.872;9.226;2023-12-07T00:27:52;5.40;93.50
360;DHT22;168;48.872;9.226;2023-12-07T00:30:20;5.40;93.60
360;DHT22;168;48.872;9.226;2023-12-07T00:32:47;5.40;93.50
360;DHT22;168;48.872;9.226;2023-12-07T00:35:15;5.40;93.50
360;DHT22;168;48.872;9.226;2023-12-07T00:37:43;5.40;93.40
360;DHT22;168;48.872;9.226;2023-12-07T00:40:11;5.40;93.20
360;DHT22;168;48.872;9.226;2023-12-07T00:42:39;5.40;93.30
360;DHT22;168;48.872;9.226;2023-12-07T00:45:08;5.50;92.80
360;DHT22;168;48.872;9.226;2023-12-07T00:47:36;5.50;92.60
360;DHT22;168;48.872;9.226;2023-12-07T00:50:04;5.50;92.80
360;DHT22;168;48.872;9.226;2023-12-07T00:52:31;5.50;93.00
360;DHT22;168;48.872;9.226;2023-12-07T00:54:59;5.50;92.80
360;DHT22;168;48.872;9.226;2023-12-07T00:57:26;5.60;92.90
360;DHT22;168;48.872;9.226;2023-12-07T00:59:53;5.60;93.00
360;DHT22;168;48.872;9.226;2023-12-07T01:02:22;5.60;92.50
360;DHT22;168;48.872;9.226;2023-12-07T01:04:50;5.70;91.50
360;DHT22;168;48.872;9.226;2023-12-07T01:07:17;5.60;92.00
360;DHT22;168;48.872;9.226;2023-12-07T01:09:44;5.60;92.60
360;DHT22;168;48.872;9.226;2023-12-07T01:12:12;5.50;93.20
360;DHT22;168;48.872;9.226;2023-12-07T01:14:39;5.40;93.60
360;DHT22;168;48.872;9.226;2023-12-07T01:17:07;5.40;93.80
360;DHT22;168;48.872;9.226;2023-12-07T01:19:35;5.40;93.90
360;DHT22;168;48.872;9.226;2023-12-07T01:22:03;5.30;94.10
360;DHT22;168;48.872;9.226;2023-12-07T01:24:30;5.30;94.70
360;DHT22;168;48.872;9.226;2023-12-07T01:26:58;5.40;94.10
360;DHT22;168;48.872;9.226;2023-12-07T01:29:25;5.50;93.00
360;DHT22;168;48.872;9.226;2023-12-07T01:31:52;5.50;92.90
360;DHT22;168;48.872;9.226;2023-12-07T01:34:20;5.50;93.70
360;DHT22;168;48.872;9.226;2023-12-07T01:39:20;5.40;94.00
360;DHT22;168;48.872;9.226;2023-12-07T01:41:48;5.40;94.30
360;DHT22;168;48.872;9.226;2023-12-07T01:44:15;5.40;94.30
360;DHT22;168;48.872;9.226;2023-12-07T01:46:42;5.50;93.80
360;DHT22;168;48.872;9.226;2023-12-07T01:49:10;5.50;93.90
360;DHT22;168;48.872;9.226;2023-12-07T01:51:38;5.60;93.60
360;DHT22;168;48.872;9.226;2023-12-07T01:54:05;5.60;93.10
360;DHT22;168;48.872;9.226;2023-12-07T01:56:34;5.60;93.10
360;DHT22;168;48.872;9.226;2023-12-07T01:59:02;5.50;93.90
360;DHT22;168;48.872;9.226;2023-12-07T02:01:30;5.50;94.90
360;DHT22;168;48.872;9.226;2023-12-07T02:03:57;5.50;95.20
360;DHT22;168;48.872;9.226;2023-12-07T02:06:25;5.50;95.20
360;DHT22;168;48.872;9.226;2023-12-07T02:08:52;5.60;94.90
360;DHT22;168;48.872;9.226;2023-12-07T02:11:20;5.60;94.60
360;DHT22;168;48.872;9.226;2023-12-07T02:13:48;5.50;94.90
360;DHT22;168;48.872;9.226;2023-12-07T02:16:25;5.50;94.70
360;DHT22;168;48.872;9.226;2023-12-07T02:19:03;5.50;94.60
360;DHT22;168;48.872;9.226;2023-12-07T02:21:40;5.60;94.20
360;DHT22;168;48.872;9.226;2023-12-07T02:24:09;5.50;93.80
360;DHT22;168;48.872;9.226;2023-12-07T02:26:39;5.50;94.70
360;DHT22;168;48.872;9.226;2023-12-07T02:29:07;5.50;94.90
360;DHT22;168;48.872;9.226;2023-12-07T02:31:34;5.50;94.20
360;DHT22;168;48.872;9.226;2023-12-07T02:34:01;5.50;94.70
360;DHT22;168;48.872;9.226;2023-12-07T02:36:30;5.50;94.10
360;DHT22;168;48.872;9.226;2023-12-07T02:38:59;5.50;94.10
360;DHT22;168;48.872;9.226;2023-12-07T02:41:30;5.50;94.20
360;DHT22;168;48.872;9.226;2023-12-07T02:43:59;5.50;94.50
360;DHT22;168;48.872;9.226;2023-12-07T02:46:28;5.50;94.30
360;DHT22;168;48.872;9.226;2023-12-07T02:48:57;5.50;94.10
360;DHT22;168;48.872;9.226;2023-12-07T02:51:24;5.50;94.40
360;DHT22;168;48.872;9.226;2023-12-07T02:53:51;5.50;94.60
360;DHT22;168;48.872;9.226;2023-12-07T02:56:19;5.50;94.60
360;DHT22;168;48.872;9.226;2023-12-07T02:58:47;5.50;94.40
360;DHT22;168;48.872;9.226;2023-12-07T03:01:15;5.50;94.30
360;DHT22;168;48.872;9.226;2023-12-07T03:03:43;5.50;94.50
360;DHT22;168;48.872;9.226;2023-12-07T03:06:10;5.60;94.90
360;DHT22;168;48.872;9.226;2023-12-07T03:08:37;5.50;94.90
360;DHT22;168;48.872;9.226;2023-12-07T03:11:05;5.50;95.10
360;DHT22;168;48.872;9.226;2023-12-07T03:13:32;5.50;95.20
360;DHT22;168;48.872;9.226;2023-12-07T03:16:00;5.50;95.10
360;DHT22;168;48.872;9.226;2023-12-07T03:18:28;5.40;94.90
360;DHT22;168;48.872;9.226;2023-12-07T03:20:56;5.40;94.80
360;DHT22;168;48.872;9.226;2023-12-07T03:23:23;5.30;94.60
360;DHT22;168;48.872;9.226;2023-12-07T03:25:51;5.20;94.50
360;DHT22;168;48.872;9.226;2023-12-07T03:28:18;5.20;94.60
360;DHT22;168;48.872;9.226;2023-12-07T03:30:45;5.10;94.70
360;DHT22;168;48.872;9.226;2023-12-07T03:33:13;4.90;94.90
360;DHT22;168;48.872;9.226;2023-12-07T03:35:42;4.80;95.20
360;DHT22;168;48.872;9.226;2023-12-07T03:38:09;4.70;95.60
360;DHT22;168;48.872;9.226;2023-12-07T03:40:36;4.60;95.90
360;DHT22;168;48.872;9.226;2023-12-07T03:43:04;4.50;96.20
360;DHT22;168;48.872;9.226;2023-12-07T03:45:31;4.40;96.40
360;DHT22;168;48.872;9.226;2023-12-07T03:47:58;4.30;96.70
360;DHT22;168;48.872;9.226;2023-12-07T03:50:26;4.30;97.20
360;DHT22;168;48.872;9.226;2023-12-07T03:52:54;4.20;97.40
360;DHT22;168;48.872;9.226;2023-12-07T03:55:22;4.20;97.70
360;DHT22;168;48.872;9.226;2023-12-07T03:57:49;4.10;97.90
360;DHT22;168;48.872;9.226;2023-12-07T04:00:16;4.00;98.20
360;DHT22;168;48.872;9.226;2023-12-07T04:02:44;4.00;98.50
360;DHT22;168;48.872;9.226;2023-12-07T04:05:11;4.00;98.70
360;DHT22;168;48.872;9.226;2023-12-07T04:07:39;3.90;98.70
360;DHT22;168;48.872;9.226;2023-12-07T04:10:08;3.90;98.80
360;DHT22;168;48.872;9.226;2023-12-07T04:12:36;3.90;98.80
360;DHT22;168;48.872;9.226;2023-12-07T04:15:04;3.90;98.90
360;DHT22;168;48.872;9.226;2023-12-07T04:17:31;3.90;98.90
360;DHT22;168;48.872;9.226;2023-12-07T04:19:59;3.90;98.80
360;DHT22;168;48.872;9.226;2023-12-07T04:22:26;3.90;98.90
360;DHT22;168;48.872;9.226;2023-12-07T04:24:54;3.90;98.90
360;DHT22;168;48.872;9.226;2023-12-07T04:27:23;3.80;98.90
360;DHT22;168;48.872;9.226;2023-12-07T04:29:51;3.70;98.80
360;DHT22;168;48.872;9.226;2023-12-07T04:32:19;3.70;98.90
360;DHT22;168;48.872;9.226;2023-12-07T04:34:46;3.60;99.00
360;DHT22;168;48.872;9.226;2023-12-07T04:37:13;3.60;99.00
360;DHT22;168;48.872;9.226;2023-12-07T04:39:41;3.50;99.00
360;DHT22;168;48.872;9.226;2023-12-07T04:42:08;3.50;99.00
360;DHT22;168;48.872;9.226;2023-12-07T04:44:37;3.40;99.00
360;DHT22;168;48.872;9.226;2023-12-07T04:47:04;3.30;99.00
360;DHT22;168;48.872;9.226;2023-12-07T04:49:32;3.30;99.10
360;DHT22;168;48.872;9.226;2023-12-07T04:51:59;3.20;99.20
360;DHT22;168;48.872;9.226;2023-12-07T04:54:26;3.10;99.20
360;DHT22;168;48.872;9.226;2023-12-07T04:56:54;3.10;99.20
360;DHT22;168;48.872;9.226;2023-12-07T04:59:21;3.10;99.20
360;DHT22;168;48.872;9.226;2023-12-07T05:01:50;3.10;99.20
360;DHT22;168;48.872;9.226;2023-12-07T05:04:17;3.00;99.10
360;DHT22;168;48.872;9.226;2023-12-07T05:06:45;3.00;99.10
360;DHT22;168;48.872;9.226;2023-12-07T05:09:12;2.90;99.10
360;DHT22;168;48.872;9.226;2023-12-07T05:11:39;2.80;99.00
360;DHT22;168;48.872;9.226;2023-12-07T05:14:07;2.80;99.00
360;DHT22;168;48.872;9.226;2023-12-07T05:16:34;2.70;98.90
360;DHT22;168;48.872;9.226;2023-12-07T05:19:03;2.70;99.00
360;DHT22;168;48.872;9.226;2023-12-07T05:21:30;2.70;99.00
360;DHT22;168;48.872;9.226;2023-12-07T05:23:58;2.70;99.10
360;DHT22;168;48.872;9.226;2023-12-07T05:26:25;2.70;99.00
360;DHT22;168;48.872;9.226;2023-12-07T05:28:52;2.60;99.10
360;DHT22;168;48.872;9.226;2023-12-07T05:31:20;2.60;99.10
360;DHT22;168;48.872;9.226;2023-12-07T05:33:47;2.60;99.20
360;DHT22;168;48.872;9.226;2023-12-07T05:36:16;2.50;99.20
360;DHT22;168;48.872;9.226;2023-12-07T05:38:43;2.50;99.20
360;DHT22;168;48.872;9.226;2023-12-07T05:41:11;2.50;99.20
360;DHT22;168;48.872;9.226;2023-12-07T05:43:40;2.40;99.20
360;DHT22;168;48.872;9.226;2023-12-07T05:46:08;2.50;99.10
360;DHT22;168;48.872;9.226;2023-12-07T05:48:35;2.50;99.10
360;DHT22;168;48.872;9.226;2023-12-07T05:51:03;2.50;99.10
360;DHT22;168;48.872;9.226;2023-12-07T05:53:31;2.50;99.10
360;DHT22;168;48.872;9.226;2023-12-07T05:56:00;2.40;99.10
360;DHT22;168;48.872;9.226;2023-12-07T05:58:28;2.40;98.90
360;DHT22;168;48.872;9.226;2023-12-07T06:00:55;2.30;98.80
360;DHT22;168;48.872;9.226;2023-12-07T06:03:23;2.20;98.70
360;DHT22;168;48.872;9.226;2023-12-07T06:05:52;2.20;98.60
360;DHT22;168;48.872;9.226;2023-12-07T06:08:19;2.20;98.60
360;DHT22;168;48.872;9.226;2023-12-07T06:10:48;2.20;98.50
360;DHT22;168;48.872;9.226;2023-12-07T06:13:16;2.20;98.50
360;DHT22;168;48.872;9.226;2023-12-07T06:15:43;2.20;98.30
360;DHT22;168;48.872;9.226;2023-12-07T06:18:10;2.20;98.40
360;DHT22;168;48.872;9.226;2023-12-07T06:20:37;2.10;98.40
360;DHT22;168;48.872;9.226;2023-12-07T06:23:07;2.10;98.30
360;DHT22;168;48.872;9.226;2023-12-07T06:25:38;2.20;98.40
360;DHT22;168;48.872;9.226;2023-12-07T06:28:07;2.20;98.40
360;DHT22;168;48.872;9.226;2023-12-07T06:30:34;2.10;98.50
360;DHT22;168;48.872;9.226;2023-12-07T06:33:02;2.10;98.50
360;DHT22;168;48.872;9.226;2023-12-07T06:35:29;2.10;98.70
360;DHT22;168;48.872;9.226;2023-12-07T06:37:57;2.10;98.80
360;DHT22;168;48.872;9.226;2023-12-07T06:40:24;2.10;98.80
360;DHT22;168;48.872;9.226;2023-12-07T06:42:51;2.10;98.80
360;DHT22;168;48.872;9.226;2023-12-07T06:45:20;2.10;98.70
360;DHT22;168;48.872;9.226;2023-12-07T06:47:47;2.10;98.50
360;DHT22;168;48.872;9.226;2023-12-07T06:50:15;2.10;98.80
360;DHT22;168;48.872;9.226;2023-12-07T06:52:42;2.10;98.90
360;DHT22;168;48.872;9.226;2023-12-07T06:55:11;2.00;98.80
360;DHT22;168;48.872;9.226;2023-12-07T06:57:38;2.00;98.90
360;DHT22;168;48.872;9.226;2023-12-07T07:00:06;2.00;99.00
360;DHT22;168;48.872;9.226;2023-12-07T07:02:38;2.00;99.00
360;DHT22;168;48.872;9.226;2023-12-07T07:05:06;2.00;98.90
360;DHT22;168;48.872;9.226;2023-12-07T07:07:35;2.00;98.90
360;DHT22;168;48.872;9.226;2023-12-07T07:10:02;2.00;98.90
360;DHT22;168;48.872;9.226;2023-12-07T07:12:30;2.00;98.90
360;DHT22;168;48.872;9.226;2023-12-07T07:14:57;2.00;98.90
360;DHT22;168;48.872;9.226;2023-12-07T07:17:25;2.10;98.80
360;DHT22;168;48.872;9.226;2023-12-07T07:19:54;2.10;98.90
360;DHT22;168;48.872;9.226;2023-12-07T07:22:21;2.00;98.90
360;DHT22;168;48.872;9.226;2023-12-07T07:24:48;2.10;98.90
360;DHT22;168;48.872;9.226;2023-12-07T07:27:16;2.10;98.90
360;DHT22;168;48.872;9.226;2023-12-07T07:29:43;2.10;98.80
360;DHT22;168;48.872;9.226;2023-12-07T07:32:12;2.10;98.70
360;DHT22;168;48.872;9.226;2023-12-07T07:34:39;2.20;98.50
360;DHT22;168;48.872;9.226;2023-12-07T07:37:08;2.20;98.50
360;DHT22;168;48.872;9.226;2023-12-07T07:39:35;2.20;98.30
360;DHT22;168;48.872;9.226;2023-12-07T07:42:03;2.30;98.20
360;DHT22;168;48.872;9.226;2023-12-07T07:44:30;2.30;98.10
360;DHT22;168;48.872;9.226;2023-12-07T07:46:58;2.30;98.10
360;DHT22;168;48.872;9.226;2023-12-07T07:49:25;2.40;97.90
360;DHT22;168;48.872;9.226;2023-12-07T07:51:52;2.50;97.90
360;DHT22;168;48.872;9.226;2023-12-07T07:54:21;2.50;97.90
360;DHT22;168;48.872;9.226;2023-12-07T07:56:48;2.60;98.00
360;DHT22;168;48.872;9.226;2023-12-07T07:59:16;2.60;98.10
360;DHT22;168;48.872;9.226;2023-12-07T08:01:43;2.70;98.30
360;DHT22;168;48.872;9.226;2023-12-07T08:04:13;2.80;98.40
360;DHT22;168;48.872;9.226;2023-12-07T08:06:40;2.80;98.30
360;DHT22;168;48.872;9.226;2023-12-07T08:09:08;2.90;98.30
360;DHT22;168;48.872;9.226;2023-12-07T08:11:37;3.00;98.40
360;DHT22;168;48.872;9.226;2023-12-07T08:14:04;3.00;98.40
360;DHT22;168;48.872;9.226;2023-12-07T08:16:32;3.10;98.50
360;DHT22;168;48.872;9.226;2023-12-07T08:18:59;3.20;98.60
360;DHT22;168;48.872;9.226;2023-12-07T08:21:26;3.20;98.60
360;DHT22;168;48.872;9.226;2023-12-07T08:23:55;3.30;98.60
360;DHT22;168;48.872;9.226;2023-12-07T08:26:22;3.40;99.10
360;DHT22;168;48.872;9.226;2023-12-07T08:28:51;3.50;99.50
360;DHT22;168;48.872;9.226;2023-12-07T08:31:20;3.60;99.40
360;DHT22;168;48.872;9.226;2023-12-07T08:33:49;3.60;99.40
360;DHT22;168;48.872;9.226;2023-12-07T08:36:16;3.60;99.30
360;DHT22;168;48.872;9.226;2023-12-07T08:38:43;3.60;99.40
360;DHT22;168;48.872;9.226;2023-12-07T08:41:11;3.70;99.20
360;DHT22;168;48.872;9.226;2023-12-07T08:43:38;3.80;99.30
360;DHT22;168;48.872;9.226;2023-12-07T08:46:07;3.70;99.20
360;DHT22;168;48.872;9.226;2023-12-07T08:48:36;3.70;99.10
360;DHT22;168;48.872;9.226;2023-12-07T08:51:03;3.60;99.10
360;DHT22;168;48.872;9.226;2023-12-07T08:53:31;3.70;99.00
360;DHT22;168;48.872;9.226;2023-12-07T08:55:58;3.70;98.90
360;DHT22;168;48.872;9.226;2023-12-07T08:58:26;3.80;99.00
360;DHT22;168;48.872;9.226;2023-12-07T09:00:54;3.90;98.90
360;DHT22;168;48.872;9.226;2023-12-07T09:03:22;4.00;99.10
360;DHT22;168;48.872;9.226;2023-12-07T09:05:53;4.10;98.90
360;DHT22;168;48.872;9.226;2023-12-07T09:08:21;4.20;99.00
360;DHT22;168;48.872;9.226;2023-12-07T09:10:48;4.30;99.20
360;DHT22;168;48.872;9.226;2023-12-07T09:13:17;4.40;99.20
360;DHT22;168;48.872;9.226;2023-12-07T09:15:44;4.50;99.20
360;DHT22;168;48.872;9.226;2023-12-07T09:18:11;4.60;98.80
360;DHT22;168;48.872;9.226;2023-12-07T09:20:40;4.70;99.00
360;DHT22;168;48.872;9.226;2023-12-07T09:23:11;4.70;98.80
360;DHT22;168;48.872;9.226;2023-12-07T09:25:41;4.80;98.90
360;DHT22;168;48.872;9.226;2023-12-07T09:28:08;5.00;98.50
360;DHT22;168;48.872;9.226;2023-12-07T09:30:35;5.00;98.50
360;DHT22;168;48.872;9.226;2023-12-07T09:33:03;5.10;98.50
360;DHT22;168;48.872;9.226;2023-12-07T09:35:30;5.20;98.40
360;DHT22;168;48.872;9.226;2023-12-07T09:38:01;5.20;98.10
360;DHT22;168;48.872;9.226;2023-12-07T09:40:31;5.30;98.00
360;DHT22;168;48.872;9.226;2023-12-07T09:42:58;5.40;97.90
360;DHT22;168;48.872;9.226;2023-12-07T09:45:26;5.50;97.80
360;DHT22;168;48.872;9.226;2023-12-07T09:47:54;5.60;97.70
360;DHT22;168;48.872;9.226;2023-12-07T09:50:23;5.70;97.70
360;DHT22;168;48.872;9.226;2023-12-07T09:52:52;5.80;97.50
360;DHT22;168;48.872;9.226;2023-12-07T09:55:23;6.00;97.00
360;DHT22;168;48.872;9.226;2023-12-07T09:57:51;6.00;96.60
360;DHT22;168;48.872;9.226;2023-12-07T10:00:20;6.10;96.60
360;DHT22;168;48.872;9.226;2023-12-07T10:02:48;6.20;96.50
360;DHT22;168;48.872;9.226;2023-12-07T10:05:16;6.30;95.90
360;DHT22;168;48.872;9.226;2023-12-07T10:07:44;6.40;95.40
360;DHT22;168;48.872;9.226;2023-12-07T10:10:14;6.40;94.80
360;DHT22;168;48.872;9.226;2023-12-07T10:12:48;6.40;94.80
360;DHT22;168;48.872;9.226;2023-12-07T10:15:19;6.50;94.50
360;DHT22;168;48.872;9.226;2023-12-07T10:17:48;6.60;93.30
360;DHT22;168;48.872;9.226;2023-12-07T10:20:16;6.70;92.50
360;DHT22;168;48.872;9.226;2023-12-07T10:22:45;6.70;92.80
360;DHT22;168;48.872;9.226;2023-12-07T10:25:12;6.80;92.30
360;DHT22;168;48.872;9.226;2023-12-07T10:27:41;6.80;92.20
360;DHT22;168;48.872;9.226;2023-12-07T10:30:11;6.90;92.00
360;DHT22;168;48.872;9.226;2023-12-07T10:32:39;7.00;91.10
360;DHT22;168;48.872;9.226;2023-12-07T10:35:08;7.00;90.90
360;DHT22;168;48.872;9.226;2023-12-07T10:37:36;7.10;90.40
360;DHT22;168;48.872;9.226;2023-12-07T10:40:04;7.10;89.70
360;DHT22;168;48.872;9.226;2023-12-07T10:42:34;7.30;87.90
360;DHT22;168;48.872;9.226;2023-12-07T10:45:08;7.30;88.60
360;DHT22;168;48.872;9.226;2023-12-07T10:47:44;7.30;88.70
360;DHT22;168;48.872;9.226;2023-12-07T10:50:14;7.30;88.30
360;DHT22;168;48.872;9.226;2023-12-07T10:52:45;7.50;87.30
360;DHT22;168;48.872;9.226;2023-12-07T10:55:17;7.50;88.10
360;DHT22;168;48.872;9.226;2023-12-07T10:57:47;7.50;86.70
360;DHT22;168;48.872;9.226;2023-12-07T11:00:15;7.50;86.30
360;DHT22;168;48.872;9.226;2023-12-07T11:02:45;7.60;85.70
360;DHT22;168;48.872;9.226;2023-12-07T11:05:13;7.60;85.90
360;DHT22;168;48.872;9.226;2023-12-07T11:07:48;7.60;84.70
360;DHT22;168;48.872;9.226;2023-12-07T11:10:21;7.60;84.60
360;DHT22;168;48.872;9.226;2023-12-07T11:12:59;7.60;85.70
360;DHT22;168;48.872;9.226;2023-12-07T11:15:27;7.60;86.00
360;DHT22;168;48.872;9.226;2023-12-07T11:17:56;7.70;85.70
360;DHT22;168;48.872;9.226;2023-12-07T11:20:32;7.70;85.70
360;DHT22;168;48.872;9.226;2023-12-07T11:23:16;7.80;85.80
360;DHT22;168;48.872;9.226;2023-12-07T11:25:49;7.90;84.10
360;DHT22;168;48.872;9.226;2023-12-07T11:28:18;7.80;84.40
360;DHT22;168;48.872;9.226;2023-12-07T11:30:46;7.70;85.70
360;DHT22;168;48.872;9.226;2023-12-07T11:33:16;7.70;86.00
360;DHT22;168;48.872;9.226;2023-12-07T11:36:02;7.80;86.50
360;DHT22;168;48.872;9.226;2023-12-07T11:38:30;7.90;86.00
360;DHT22;168;48.872;9.226;2023-12-07T11:40:57;7.90;85.50
360;DHT22;168;48.872;9.226;2023-12-07T11:43:40;8.00;85.80
360;DHT22;168;48.872;9.226;2023-12-07T11:46:10;8.10;86.10
360;DHT22;168;48.872;9.226;2023-12-07T11:48:39;8.10;85.20
360;DHT22;168;48.872;9.226;2023-12-07T11:51:07;8.10;84.40
360;DHT22;168;48.872;9.226;2023-12-07T11:53:50;8.20;84.60
360;DHT22;168;48.872;9.226;2023-12-07T11:56:21;8.30;85.20
360;DHT22;168;48.872;9.226;2023-12-07T11:58:52;8.30;84.90
360;DHT22;168;48.872;9.226;2023-12-07T12:01:19;8.40;85.00
360;DHT22;168;48.872;9.226;2023-12-07T12:03:48;8.40;83.10
360;DHT22;168;48.872;9.226;2023-12-07T12:06:15;8.40;83.00
360;DHT22;168;48.872;9.226;2023-12-07T12:08:49;8.40;83.00
360;DHT22;168;48.872;9.226;2023-12-07T12:11:20;8.50;82.90
360;DHT22;168;48.872;9.226;2023-12-07T12:13:50;8.50;82.70
360;DHT22;168;48.872;9.226;2023-12-07T12:16:18;8.50;81.30
360;DHT22;168;48.872;9.226;2023-12-07T12:18:45;8.50;80.60
360;DHT22;168;48.872;9.226;2023-12-07T12:21:14;8.50;79.60
360;DHT22;168;48.872;9.226;2023-12-07T12:23:41;8.50;80.00
360;DHT22;168;48.872;9.226;2023-12-07T12:26:10;8.50;78.40
360;DHT22;168;48.872;9.226;2023-12-07T12:28:37;8.40;77.50
360;DHT22;168;48.872;9.226;2023-12-07T12:31:09;8.40;77.60
360;DHT22;168;48.872;9.226;2023-12-07T12:33:37;8.30;77.30
360;DHT22;168;48.872;9.226;2023-12-07T12:36:06;8.30;78.70
360;DHT22;168;48.872;9.226;2023-12-07T12:38:35;8.20;79.50
360;DHT22;168;48.872;9.226;2023-12-07T12:41:03;8.20;79.80
360;DHT22;168;48.872;9.226;2023-12-07T12:43:31;8.20;80.10
360;DHT22;168;48.872;9.226;2023-12-07T12:45:59;8.20;80.10
360;DHT22;168;48.872;9.226;2023-12-07T12:48:27;8.30;80.00
360;DHT22;168;48.872;9.226;2023-12-07T12:50:55;8.30;79.40
360;DHT22;168;48.872;9.226;2023-12-07T12:53:27;8.40;77.90
360;DHT22;168;48.872;9.226;2023-12-07T12:55:56;8.40;76.80
360;DHT22;168;48.872;9.226;2023-12-07T12:58:23;8.30;77.70
360;DHT22;168;48.872;9.226;2023-12-07T13:00:51;8.30;78.00
360;DHT22;168;48.872;9.226;2023-12-07T13:03:27;8.30;77.90
360;DHT22;168;48.872;9.226;2023-12-07T13:05:54;8.30;79.10
360;DHT22;168;48.872;9.226;2023-12-07T13:08:22;8.30;78.90
360;DHT22;168;48.872;9.226;2023-12-07T13:10:49;8.30;78.40
360;DHT22;168;48.872;9.226;2023-12-07T13:13:18;8.20;78.40
360;DHT22;168;48.872;9.226;2023-12-07T13:15:45;8.30;75.90
360;DHT22;168;48.872;9.226;2023-12-07T13:18:13;8.30;76.00
360;DHT22;168;48.872;9.226;2023-12-07T13:20:40;8.30;75.50
360;DHT22;168;48.872;9.226;2023-12-07T13:23:07;8.30;75.20
360;DHT22;168;48.872;9.226;2023-12-07T13:25:35;8.30;74.00
360;DHT22;168;48.872;9.226;2023-12-07T13:28:02;8.30;73.60
360;DHT22;168;48.872;9.226;2023-12-07T13:30:31;8.30;73.70
360;DHT22;168;48.872;9.226;2023-12-07T13:33:01;8.20;73.80
360;DHT22;168;48.872;9.226;2023-12-07T13:35:29;8.20;73.90
360;DHT22;168;48.872;9.226;2023-12-07T13:37:57;8.20;73.20
360;DHT22;168;48.872;9.226;2023-12-07T13:40:24;8.20;73.70
360;DHT22;168;48.872;9.226;2023-12-07T13:42:53;8.20;72.50
360;DHT22;168;48.872;9.226;2023-12-07T13:45:21;8.10;73.20
360;DHT22;168;48.872;9.226;2023-12-07T13:47:49;8.00;73.40
360;DHT22;168;48.872;9.226;2023-12-07T13:50:17;8.00;72.70
360;DHT22;168;48.872;9.226;2023-12-07T13:52:44;7.90;73.20
360;DHT22;168;48.872;9.226;2023-12-07T13:55:11;7.90;74.50
360;DHT22;168;48.872;9.226;2023-12-07T13:57:40;7.90;74.90
360;DHT22;168;48.872;9.226;2023-12-07T14:00:08;8.00;74.80
360;DHT22;168;48.872;9.226;2023-12-07T14:02:38;8.00;74.00
360;DHT22;168;48.872;9.226;2023-12-07T14:05:09;8.00;73.10
360;DHT22;168;48.872;9.226;2023-12-07T14:07:36;8.00;74.10
360;DHT22;168;48.872;9.226;2023-12-07T14:10:04;8.10;73.30
360;DHT22;168;48.872;9.226;2023-12-07T14:12:31;8.10;72.60
360;DHT22;168;48.872;9.226;2023-12-07T14:15:00;8.20;72.30
360;DHT22;168;48.872;9.226;2023-12-07T14:17:28;8.10;72.40
360;DHT22;168;48.872;9.226;2023-12-07T14:20:02;8.20;70.60
360;DHT22;168;48.872;9.226;2023-12-07T14:22:31;8.20;70.60
360;DHT22;168;48.872;9.226;2023-12-07T14:24:59;8.10;71.50
360;DHT22;168;48.872;9.226;2023-12-07T14:27:26;8.10;71.80
360;DHT22;168;48.872;9.226;2023-12-07T14:29:54;8.10;71.00
360;DHT22;168;48.872;9.226;2023-12-07T14:32:22;8.00;71.00
360;DHT22;168;48.872;9.226;2023-12-07T14:34:49;8.00;70.90
360;DHT22;168;48.872;9.226;2023-12-07T14:37:17;7.90;71.30
360;DHT22;168;48.872;9.226;2023-12-07T14:39:46;7.90;70.40
360;DHT22;168;48.872;9.226;2023-12-07T14:42:14;7.80;71.40
360;DHT22;168;48.872;9.226;2023-12-07T14:44:41;7.70;71.60
360;DHT22;168;48.872;9.226;2023-12-07T14:47:09;7.70;71.40
360;DHT22;168;48.872;9.226;2023-12-07T14:49:37;7.60;71.80
360;DHT22;168;48.872;9.226;2023-12-07T14:52:06;7.60;70.90
360;DHT22;168;48.872;9.226;2023-12-07T14:54:36;7.50;71.20
360;DHT22;168;48.872;9.226;2023-12-07T14:57:05;7.40;71.50
360;DHT22;168;48.872;9.226;2023-12-07T14:59:34;7.20;72.20
360;DHT22;168;48.872;9.226;2023-12-07T15:02:02;7.20;70.40
360;DHT22;168;48.872;9.226;2023-12-07T15:04:29;7.10;70.10
360;DHT22;168;48.872;9.226;2023-12-07T15:06:57;6.90;70.50
360;DHT22;168;48.872;9.226;2023-12-07T15:09:24;6.80;70.70
360;DHT22;168;48.872;9.226;2023-12-07T15:11:52;6.60;71.10
360;DHT22;168;48.872;9.226;2023-12-07T15:14:22;6.50;71.70
360;DHT22;168;48.872;9.226;2023-12-07T15:16:49;6.40;72.10
360;DHT22;168;48.872;9.226;2023-12-07T15:19:20;6.30;71.40
360;DHT22;168;48.872;9.226;2023-12-07T15:21:47;6.20;72.20
360;DHT22;168;48.872;9.226;2023-12-07T15:24:16;6.20;71.80
360;DHT22;168;48.872;9.226;2023-12-07T15:26:46;6.10;72.40
360;DHT22;168;48.872;9.226;2023-12-07T15:29:13;6.00;72.80
360;DHT22;168;48.872;9.226;2023-12-07T15:31:42;5.90;73.10
360;DHT22;168;48.872;9.226;2023-12-07T15:34:10;5.80;73.20
360;DHT22;168;48.872;9.226;2023-12-07T15:36:37;5.80;72.90
360;DHT22;168;48.872;9.226;2023-12-07T15:39:05;5.70;72.80
360;DHT22;168;48.872;9.226;2023-12-07T15:41:33;5.60;72.80
360;DHT22;168;48.872;9.226;2023-12-07T15:44:00;5.50;73.00
360;DHT22;168;48.872;9.226;2023-12-07T15:46:27;5.40;72.90
360;DHT22;168;48.872;9.226;2023-12-07T15:48:56;5.30;72.70
360;DHT22;168;48.872;9.226;2023-12-07T15:51:25;5.20;72.80
360;DHT22;168;48.872;9.226;2023-12-07T15:53:52;5.20;72.40
360;DHT22;168;48.872;9.226;2023-12-07T15:56:20;5.10;72.50
360;DHT22;168;48.872;9.226;2023-12-07T15:58:48;5.10;72.20
360;DHT22;168;48.872;9.226;2023-12-07T16:01:15;5.00;72.30
360;DHT22;168;48.872;9.226;2023-12-07T16:03:42;5.10;71.70
360;DHT22;168;48.872;9.226;2023-12-07T16:06:11;5.00;71.90
360;DHT22;168;48.872;9.226;2023-12-07T16:08:38;4.90;72.40
360;DHT22;168;48.872;9.226;2023-12-07T16:11:06;4.90;72.30
360;DHT22;168;48.872;9.226;2023-12-07T16:13:33;4.90;72.50
360;DHT22;168;48.872;9.226;2023-12-07T16:16:01;4.70;72.80
360;DHT22;168;48.872;9.226;2023-12-07T16:18:28;4.70;73.10
360;DHT22;168;48.872;9.226;2023-12-07T16:20:56;4.70;73.40
360;DHT22;168;48.872;9.226;2023-12-07T16:23:24;4.60;73.80
360;DHT22;168;48.872;9.226;2023-12-07T16:25:52;4.50;74.90
360;DHT22;168;48.872;9.226;2023-12-07T16:28:19;4.50;74.90
360;DHT22;168;48.872;9.226;2023-12-07T16:30:47;4.50;75.20
360;DHT22;168;48.872;9.226;2023-12-07T16:33:14;4.60;74.70
360;DHT22;168;48.872;9.226;2023-12-07T16:35:42;4.60;75.00
360;DHT22;168;48.872;9.226;2023-12-07T16:38:10;4.50;75.30
360;DHT22;168;48.872;9.226;2023-12-07T16:40:38;4.30;76.00
360;DHT22;168;48.872;9.226;2023-12-07T16:43:05;4.20;77.50
360;DHT22;168;48.872;9.226;2023-12-07T16:45:34;4.20;78.10
360;DHT22;168;48.872;9.226;2023-12-07T16:48:02;4.10;78.40
360;DHT22;168;48.872;9.226;2023-12-07T16:50:31;4.10;79.00
360;DHT22;168;48.872;9.226;2023-12-07T16:52:58;4.10;79.40
360;DHT22;168;48.872;9.226;2023-12-07T16:55:26;4.10;79.50
360;DHT22;168;48.872;9.226;2023-12-07T16:57:55;4.10;79.70
360;DHT22;168;48.872;9.226;2023-12-07T17:00:23;4.00;79.60